createdAt,value
2023-01-17T00:02:01.085Z,4.40
2023-01-17T00:04:46.568Z,4.40
2023-01-17T00:07:32.716Z,4.30
2023-01-17T00:10:01.203Z,4.30
2023-01-17T00:12:30.300Z,4.30
2023-01-17T00:14:59.993Z,4.30
2023-01-17T00:17:28.908Z,4.30
2023-01-17T00:20:14.661Z,4.30
2023-01-17T00:23:01.228Z,4.20
2023-01-17T00:25:48.437Z,4.20
2023-01-17T00:28:15.452Z,4.20
2023-01-17T00:30:43.754Z,4.20
2023-01-17T00:33:10.696Z,4.10
2023-01-17T00:35:37.612Z,4.10
2023-01-17T00:38:05.435Z,4.10
2023-01-17T00:40:32.433Z,4.10
2023-01-17T00:43:17.857Z,4.10
2023-01-17T00:46:05.118Z,4.10
2023-01-17T00:48:50.463Z,4.10
2023-01-17T00:51:36.251Z,4.10
2023-01-17T00:54:21.857Z,4.10
2023-01-17T00:57:07.545Z,4.10
2023-01-17T00:59:54.301Z,4.10
2023-01-17T01:02:41.145Z,4.10
2023-01-17T01:05:27.626Z,4.10
2023-01-17T01:08:13.309Z,4.10
2023-01-17T01:10:58.703Z,4.10
2023-01-17T01:13:44.437Z,4.10
2023-01-17T01:16:30.022Z,4.20
2023-01-17T01:19:18.209Z,4.20
2023-01-17T01:22:03.803Z,4.20
2023-01-17T01:24:49.145Z,4.20
2023-01-17T01:27:34.858Z,4.30
2023-01-17T01:30:20.355Z,4.30
2023-01-17T01:33:06.019Z,4.30
2023-01-17T01:35:37.005Z,4.30
2023-01-17T01:38:05.121Z,4.20
2023-01-17T01:40:33.131Z,4.20
2023-01-17T01:43:05.745Z,4.20
2023-01-17T01:45:33.817Z,4.10
2023-01-17T01:48:03.460Z,4.10
2023-01-17T01:50:31.633Z,4.10
2023-01-17T01:53:02.102Z,4.00
2023-01-17T01:55:31.618Z,4.00
2023-01-17T01:58:00.492Z,4.00
2023-01-17T02:00:30.566Z,4.00
2023-01-17T02:02:59.328Z,4.00
2023-01-17T02:05:28.016Z,4.00
2023-01-17T02:07:58.596Z,4.00
2023-01-17T02:10:28.753Z,4.00
2023-01-17T02:12:56.793Z,4.00
2023-01-17T02:15:30.424Z,4.00
2023-01-17T02:18:01.897Z,4.10
2023-01-17T02:20:49.071Z,4.10
2023-01-17T02:23:59.016Z,4.10
2023-01-17T02:26:42.563Z,4.10
2023-01-17T02:29:35.157Z,4.10
2023-01-17T02:32:05.773Z,4.10
2023-01-17T02:34:36.283Z,4.20
2023-01-17T02:37:06.496Z,4.20
2023-01-17T02:39:42.750Z,4.10
2023-01-17T02:42:12.324Z,4.20
2023-01-17T02:44:41.379Z,4.20
2023-01-17T02:47:22.570Z,4.20
2023-01-17T02:49:50.582Z,4.20
2023-01-17T02:52:28.437Z,4.20
2023-01-17T02:55:08.875Z,4.20
2023-01-17T02:57:45.636Z,4.20
2023-01-17T03:00:21.985Z,4.30
2023-01-17T03:02:58.145Z,4.30
2023-01-17T03:05:28.745Z,4.30
2023-01-17T03:07:56.754Z,4.30
2023-01-17T03:10:24.748Z,4.30
2023-01-17T03:12:52.757Z,4.30
2023-01-17T03:15:20.787Z,4.30
2023-01-17T03:17:50.082Z,4.30
2023-01-17T03:20:22.270Z,4.30
2023-01-17T03:22:50.554Z,4.30
2023-01-17T03:25:18.563Z,4.30
2023-01-17T03:27:46.709Z,4.30
2023-01-17T03:30:16.089Z,4.40
2023-01-17T03:32:44.074Z,4.30
2023-01-17T03:35:12.086Z,4.40
2023-01-17T03:37:41.438Z,4.30
2023-01-17T03:40:10.623Z,4.40
2023-01-17T03:42:38.606Z,4.40
2023-01-17T03:45:07.517Z,4.40
2023-01-17T03:47:36.175Z,4.40
2023-01-17T03:50:04.263Z,4.40
2023-01-17T03:52:32.578Z,4.40
2023-01-17T03:55:02.713Z,4.40
2023-01-17T03:57:30.732Z,4.40
2023-01-17T03:59:58.758Z,4.40
2023-01-17T04:02:26.755Z,4.50
2023-01-17T04:04:54.865Z,4.50
2023-01-17T04:07:22.979Z,4.50
2023-01-17T04:09:51.006Z,4.50
2023-01-17T04:12:20.337Z,4.50
2023-01-17T04:14:49.211Z,4.60
2023-01-17T04:17:18.051Z,4.50
2023-01-17T04:19:46.069Z,4.60
2023-01-17T04:22:14.055Z,4.60
2023-01-17T04:24:42.169Z,4.60
2023-01-17T04:27:14.212Z,4.60
2023-01-17T04:29:45.888Z,4.60
2023-01-17T04:32:14.785Z,4.60
2023-01-17T04:34:42.833Z,4.60
2023-01-17T04:37:10.830Z,4.70
2023-01-17T04:39:38.842Z,4.70
2023-01-17T04:42:06.954Z,4.60
2023-01-17T04:44:34.965Z,4.60
2023-01-17T04:47:04.300Z,4.70
2023-01-17T04:49:32.330Z,4.70
2023-01-17T04:52:00.309Z,4.70
2023-01-17T04:54:28.498Z,4.80
2023-01-17T04:56:56.500Z,4.70
2023-01-17T04:59:24.504Z,4.80
2023-01-17T05:01:52.551Z,4.70
2023-01-17T05:04:22.037Z,4.80
2023-01-17T05:06:50.037Z,4.80
2023-01-17T05:09:18.053Z,4.80
2023-01-17T05:11:46.046Z,4.80
2023-01-17T05:14:14.168Z,4.90
2023-01-17T05:16:42.159Z,4.90
2023-01-17T05:19:10.181Z,4.90
2023-01-17T05:21:39.525Z,4.90
2023-01-17T05:24:08.362Z,4.90
2023-01-17T05:26:36.363Z,4.90
2023-01-17T05:29:04.372Z,4.90
2023-01-17T05:31:32.389Z,4.90
2023-01-17T05:34:00.414Z,4.90
2023-01-17T05:36:28.407Z,4.90
2023-01-17T05:38:57.772Z,4.90
2023-01-17T05:41:25.762Z,5.00
2023-01-17T05:43:53.777Z,5.00
2023-01-17T05:46:21.842Z,5.00
2023-01-17T05:48:49.913Z,5.00
2023-01-17T05:51:17.903Z,5.00
2023-01-17T05:53:45.912Z,5.10
2023-01-17T05:56:15.224Z,5.10
2023-01-17T05:58:43.238Z,5.00
2023-01-17T06:01:11.272Z,5.10
2023-01-17T06:03:39.320Z,5.00
2023-01-17T06:06:07.765Z,5.00
2023-01-17T06:08:35.749Z,5.10
2023-01-17T06:11:03.756Z,5.10
2023-01-17T06:13:33.094Z,5.10
2023-01-17T06:16:04.045Z,5.10
2023-01-17T06:18:32.275Z,5.10
2023-01-17T06:21:00.296Z,5.10
2023-01-17T06:23:28.349Z,5.10
2023-01-17T06:25:56.380Z,5.20
2023-01-17T06:28:24.565Z,5.20
2023-01-17T06:30:53.964Z,5.10
2023-01-17T06:33:21.961Z,5.20
2023-01-17T06:35:50.337Z,5.20
2023-01-17T06:38:18.383Z,5.20
2023-01-17T06:40:46.408Z,5.10
2023-01-17T06:43:14.416Z,5.10
2023-01-17T06:45:42.440Z,5.10
2023-01-17T06:48:11.777Z,5.10
2023-01-17T06:50:39.791Z,5.00
2023-01-17T06:53:07.872Z,5.00
2023-01-17T06:55:35.865Z,5.00
2023-01-17T06:58:03.841Z,5.00
2023-01-17T07:00:35.002Z,5.00
2023-01-17T07:03:03.185Z,5.00
2023-01-17T07:05:32.881Z,5.00
2023-01-17T07:08:00.892Z,4.90
2023-01-17T07:10:28.987Z,4.90
2023-01-17T07:13:00.115Z,4.90
2023-01-17T07:15:28.131Z,4.90
2023-01-17T07:17:56.123Z,4.80
2023-01-17T07:20:24.137Z,4.80
2023-01-17T07:22:53.478Z,4.80
2023-01-17T07:25:21.515Z,4.70
2023-01-17T07:27:49.518Z,4.70
2023-01-17T07:30:18.122Z,4.60
2023-01-17T07:32:46.120Z,4.60
2023-01-17T07:35:14.164Z,4.60
2023-01-17T07:37:42.144Z,4.70
2023-01-17T07:40:12.968Z,4.70
2023-01-17T07:42:41.054Z,4.60
2023-01-17T07:45:10.433Z,4.60
2023-01-17T07:47:38.423Z,4.70
2023-01-17T07:50:07.135Z,4.70
2023-01-17T07:52:35.136Z,4.60
2023-01-17T07:55:03.145Z,4.60
2023-01-17T07:57:32.746Z,4.50
2023-01-17T08:00:00.808Z,4.60
2023-01-17T08:02:28.822Z,4.60
2023-01-17T08:04:57.252Z,4.70
2023-01-17T08:07:25.250Z,4.60
2023-01-17T08:09:54.284Z,4.60
2023-01-17T08:12:22.272Z,4.60
2023-01-17T08:14:51.637Z,4.60
2023-01-17T08:17:20.603Z,4.60
2023-01-17T08:19:50.114Z,4.60
2023-01-17T08:22:18.130Z,4.60
2023-01-17T08:24:46.125Z,4.60
2023-01-17T08:27:14.109Z,4.70
2023-01-17T08:29:47.068Z,4.60
2023-01-17T08:32:16.561Z,4.70
2023-01-17T08:34:44.592Z,4.70
2023-01-17T08:37:12.614Z,4.80
2023-01-17T08:39:40.613Z,4.90
2023-01-17T08:42:08.641Z,4.90
2023-01-17T08:44:36.655Z,4.90
2023-01-17T08:47:04.674Z,4.90
2023-01-17T08:49:34.111Z,4.90
2023-01-17T08:52:02.127Z,4.90
2023-01-17T08:54:30.125Z,5.00
2023-01-17T08:56:58.139Z,5.00
2023-01-17T08:59:26.180Z,5.00
2023-01-17T09:01:58.234Z,5.00
2023-01-17T09:04:26.403Z,5.00
2023-01-17T09:06:55.792Z,5.00
2023-01-17T09:09:23.910Z,4.90
2023-01-17T09:11:51.918Z,4.90
2023-01-17T09:14:19.911Z,4.90
2023-01-17T09:16:48.597Z,4.90
2023-01-17T09:19:16.624Z,4.90
2023-01-17T09:21:44.640Z,4.80
2023-01-17T09:24:14.233Z,4.90
2023-01-17T09:26:42.413Z,4.90
2023-01-17T09:29:10.497Z,4.90
2023-01-17T09:31:38.515Z,4.80
2023-01-17T09:34:06.511Z,4.80
2023-01-17T09:36:34.881Z,4.80
2023-01-17T09:39:03.234Z,4.90
2023-01-17T09:41:33.200Z,4.90
2023-01-17T09:44:04.132Z,4.90
2023-01-17T09:46:33.339Z,4.80
2023-01-17T09:49:05.562Z,4.80
2023-01-17T09:51:33.729Z,4.80
2023-01-17T09:54:02.484Z,4.80
2023-01-17T09:56:35.707Z,4.80
2023-01-17T09:59:20.082Z,4.70
2023-01-17T10:01:52.062Z,4.70
2023-01-17T10:04:29.116Z,4.60
2023-01-17T10:07:03.399Z,4.60
2023-01-17T10:09:41.849Z,4.70
2023-01-17T10:12:20.147Z,4.70
2023-01-17T10:14:57.638Z,4.80
2023-01-17T10:17:31.342Z,4.70
2023-01-17T10:20:09.553Z,4.70
2023-01-17T10:22:46.511Z,4.70
2023-01-17T10:25:37.569Z,4.80
2023-01-17T10:28:11.785Z,4.70
2023-01-17T10:30:42.502Z,4.70
2023-01-17T10:33:14.557Z,4.80
2023-01-17T10:35:48.087Z,4.80
2023-01-17T10:38:16.075Z,5.00
2023-01-17T10:40:45.882Z,5.20
2023-01-17T10:43:18.948Z,5.20
2023-01-17T10:45:51.936Z,5.30
2023-01-17T10:48:34.688Z,5.30
2023-01-17T10:51:05.798Z,5.30
2023-01-17T10:53:41.193Z,5.10
2023-01-17T10:56:09.201Z,5.00
2023-01-17T10:58:38.538Z,5.10
2023-01-17T11:01:08.845Z,5.20
2023-01-17T11:03:36.972Z,5.30
2023-01-17T11:06:18.917Z,5.30
2023-01-17T11:08:52.189Z,5.30
2023-01-17T11:11:20.999Z,5.40
2023-01-17T11:13:50.367Z,5.40
2023-01-17T11:16:21.189Z,5.40
2023-01-17T11:18:50.264Z,5.60
2023-01-17T11:21:19.601Z,5.90
2023-01-17T11:23:47.892Z,5.80
2023-01-17T11:26:24.151Z,6.00
2023-01-17T11:28:53.647Z,5.70
2023-01-17T11:31:26.337Z,5.70
2023-01-17T11:34:07.408Z,5.70
2023-01-17T11:36:35.475Z,5.90
2023-01-17T11:39:04.838Z,5.60
2023-01-17T11:41:37.422Z,5.70
2023-01-17T11:44:22.633Z,5.60
2023-01-17T11:46:50.676Z,5.50
2023-01-17T11:49:24.212Z,5.30
2023-01-17T11:51:56.128Z,5.20
2023-01-17T11:54:27.712Z,5.30
2023-01-17T11:56:58.496Z,5.40
2023-01-17T11:59:31.561Z,5.20
2023-01-17T12:02:31.998Z,5.10
2023-01-17T12:05:05.840Z,5.30
2023-01-17T12:07:36.147Z,5.40
2023-01-17T12:10:06.689Z,5.20
2023-01-17T12:13:02.839Z,5.20
2023-01-17T12:15:39.302Z,4.90
2023-01-17T12:18:34.865Z,4.90
2023-01-17T12:21:14.564Z,4.90
2023-01-17T12:24:10.735Z,4.60
2023-01-17T12:26:40.351Z,4.70
2023-01-17T12:29:21.877Z,4.80
2023-01-17T12:31:55.519Z,4.80
2023-01-17T12:34:25.515Z,4.60
2023-01-17T12:36:54.233Z,4.80
2023-01-17T12:39:24.749Z,4.90
2023-01-17T12:41:57.744Z,4.70
2023-01-17T12:44:37.781Z,4.80
2023-01-17T12:47:07.358Z,4.90
2023-01-17T12:49:39.841Z,5.10
2023-01-17T12:52:11.682Z,5.10
2023-01-17T12:54:40.534Z,5.10
2023-01-17T12:57:14.039Z,5.20
2023-01-17T12:59:43.835Z,5.20
2023-01-17T13:02:17.381Z,5.10
2023-01-17T13:04:58.353Z,5.10
2023-01-17T13:07:33.900Z,5.00
2023-01-17T13:10:04.437Z,5.10
2023-01-17T13:12:33.662Z,5.00
2023-01-17T13:15:07.141Z,5.00
2023-01-17T13:17:39.688Z,5.00
2023-01-17T13:20:14.281Z,5.00
2023-01-17T13:22:42.291Z,5.10
2023-01-17T13:25:17.157Z,5.00
2023-01-17T13:28:01.833Z,5.00
2023-01-17T13:30:36.609Z,4.90
2023-01-17T13:33:24.182Z,5.00
2023-01-17T13:35:58.252Z,4.80
2023-01-17T13:38:35.605Z,4.80
2023-01-17T13:41:07.205Z,4.80
2023-01-17T13:43:36.084Z,5.00
2023-01-17T13:46:04.266Z,5.00
2023-01-17T13:48:34.643Z,5.10
2023-01-17T13:51:03.346Z,5.20
2023-01-17T13:53:47.380Z,5.20
2023-01-17T13:56:16.813Z,5.20
2023-01-17T13:58:59.234Z,5.20
2023-01-17T14:01:54.399Z,5.10
2023-01-17T14:04:24.707Z,5.10
2023-01-17T14:06:59.510Z,5.10
2023-01-17T14:09:29.449Z,5.00
2023-01-17T14:11:59.993Z,5.00
2023-01-17T14:14:50.499Z,4.80
2023-01-17T14:17:43.291Z,4.80
2023-01-17T14:20:45.021Z,4.80
2023-01-17T14:23:54.734Z,4.70
2023-01-17T14:26:29.305Z,4.80
2023-01-17T14:28:57.841Z,4.70
2023-01-17T14:31:25.934Z,4.60
2023-01-17T14:33:54.279Z,4.60
2023-01-17T14:36:26.972Z,4.60
2023-01-17T14:38:55.021Z,4.50
2023-01-17T14:41:25.140Z,4.60
2023-01-17T14:43:55.103Z,4.50
2023-01-17T14:46:25.637Z,4.50
2023-01-17T14:48:54.203Z,4.50
2023-01-17T14:51:22.926Z,4.50
2023-01-17T14:53:55.375Z,4.50
2023-01-17T14:56:24.758Z,4.50
2023-01-17T14:59:05.821Z,4.40
2023-01-17T15:01:34.041Z,4.30
2023-01-17T15:04:02.179Z,4.30
2023-01-17T15:06:32.998Z,4.10
2023-01-17T15:09:03.380Z,4.20
2023-01-17T15:11:33.607Z,4.20
2023-01-17T15:14:05.991Z,4.20
2023-01-17T15:16:34.921Z,4.10
2023-01-17T15:19:03.336Z,4.10
2023-01-17T15:21:32.218Z,4.10
2023-01-17T15:24:01.486Z,4.00
2023-01-17T15:26:30.713Z,4.00
2023-01-17T15:29:05.022Z,3.90
2023-01-17T15:31:41.235Z,3.90
2023-01-17T15:34:10.399Z,3.90
2023-01-17T15:36:38.600Z,3.80
2023-01-17T15:39:08.381Z,3.70
2023-01-17T15:41:37.177Z,3.70
2023-01-17T15:44:06.605Z,3.70
2023-01-17T15:46:41.793Z,3.60
2023-01-17T15:49:17.625Z,3.60
2023-01-17T15:51:51.215Z,3.60
2023-01-17T15:54:26.851Z,3.60
2023-01-17T15:57:18.076Z,3.50
2023-01-17T15:59:48.873Z,3.50
2023-01-17T16:02:43.378Z,3.50
2023-01-17T16:05:41.800Z,3.40
2023-01-17T16:08:24.856Z,3.40
2023-01-17T16:10:54.866Z,3.40
2023-01-17T16:13:22.970Z,3.30
2023-01-17T16:15:52.341Z,3.30
2023-01-17T16:18:21.967Z,3.20
2023-01-17T16:20:51.101Z,3.20
2023-01-17T16:23:19.130Z,3.10
2023-01-17T16:25:47.129Z,3.10
2023-01-17T16:28:15.128Z,3.00
2023-01-17T16:30:43.198Z,3.00
2023-01-17T16:33:12.882Z,3.00
2023-01-17T16:35:41.233Z,2.90
2023-01-17T16:38:11.251Z,2.80
2023-01-17T16:40:40.925Z,2.80
2023-01-17T16:43:08.941Z,2.80
2023-01-17T16:45:40.588Z,2.80
2023-01-17T16:48:08.668Z,2.70
2023-01-17T16:50:38.975Z,2.70
2023-01-17T16:53:06.991Z,2.60
2023-01-17T16:55:34.987Z,2.60
2023-01-17T16:58:03.023Z,2.60
2023-01-17T17:00:31.039Z,2.60
2023-01-17T17:02:59.080Z,2.60
2023-01-17T17:05:27.100Z,2.50
2023-01-17T17:07:56.785Z,2.40
2023-01-17T17:10:27.546Z,2.40
2023-01-17T17:12:55.565Z,2.40
2023-01-17T17:15:23.550Z,2.30
2023-01-17T17:17:51.774Z,2.40
2023-01-17T17:20:20.029Z,2.30
2023-01-17T17:22:51.029Z,2.30
2023-01-17T17:25:20.438Z,2.30
2023-01-17T17:27:48.454Z,2.20
2023-01-17T17:30:16.985Z,2.20
2023-01-17T17:32:46.847Z,2.20
2023-01-17T17:35:15.141Z,2.20
2023-01-17T17:37:43.138Z,2.10
2023-01-17T17:40:12.272Z,2.10
2023-01-17T17:42:42.958Z,2.10
2023-01-17T17:45:11.884Z,2.10
2023-01-17T17:47:39.870Z,2.10
2023-01-17T17:50:09.289Z,2.10
2023-01-17T17:52:38.164Z,2.10
2023-01-17T17:55:07.042Z,2.10
2023-01-17T17:57:35.036Z,2.00
2023-01-17T18:00:05.188Z,2.00
2023-01-17T18:02:34.655Z,2.00
2023-01-17T18:05:03.332Z,1.90
2023-01-17T18:07:32.289Z,1.80
2023-01-17T18:10:00.358Z,1.80
2023-01-17T18:12:28.353Z,1.90
2023-01-17T18:14:56.371Z,1.80
2023-01-17T18:17:25.732Z,1.80
2023-01-17T18:19:53.756Z,1.80
2023-01-17T18:22:21.771Z,1.80
2023-01-17T18:24:49.762Z,1.80
2023-01-17T18:27:17.759Z,1.80
2023-01-17T18:29:45.773Z,1.70
2023-01-17T18:32:14.290Z,1.70
2023-01-17T18:34:43.753Z,1.70
2023-01-17T18:37:11.749Z,1.70
2023-01-17T18:39:39.847Z,1.70
2023-01-17T18:42:07.848Z,1.70
2023-01-17T18:44:35.886Z,1.60
2023-01-17T18:47:04.800Z,1.60
2023-01-17T18:49:33.662Z,1.60
2023-01-17T18:52:03.006Z,1.60
2023-01-17T18:54:31.995Z,1.60
2023-01-17T18:57:00.045Z,1.60
2023-01-17T18:59:28.083Z,1.60
2023-01-17T19:01:56.084Z,1.50
2023-01-17T19:04:24.099Z,1.50
2023-01-17T19:06:52.105Z,1.50
2023-01-17T19:09:22.375Z,1.50
2023-01-17T19:11:51.381Z,1.50
2023-01-17T19:14:19.469Z,1.40
2023-01-17T19:16:47.455Z,1.40
2023-01-17T19:19:16.146Z,1.40
2023-01-17T19:21:44.162Z,1.40
2023-01-17T19:24:13.167Z,1.30
2023-01-17T19:26:42.948Z,1.20
2023-01-17T19:29:10.989Z,1.20
2023-01-17T19:31:42.568Z,1.20
2023-01-17T19:34:11.419Z,1.20
2023-01-17T19:36:39.430Z,1.20
2023-01-17T19:39:09.480Z,1.20
2023-01-17T19:41:38.645Z,1.10
2023-01-17T19:44:08.907Z,1.10
2023-01-17T19:46:37.264Z,1.10
2023-01-17T19:49:05.945Z,1.10
2023-01-17T19:51:33.943Z,1.10
2023-01-17T19:54:04.091Z,1.10
2023-01-17T19:56:32.228Z,1.00
2023-01-17T19:59:01.630Z,1.00
2023-01-17T20:01:32.307Z,0.90
2023-01-17T20:04:00.767Z,0.90
2023-01-17T20:06:29.575Z,0.90
2023-01-17T20:08:57.646Z,0.80
2023-01-17T20:11:26.373Z,0.80
2023-01-17T20:13:55.190Z,0.70
2023-01-17T20:16:23.757Z,0.60
2023-01-17T20:18:53.354Z,0.50
2023-01-17T20:21:22.314Z,0.50
2023-01-17T20:23:51.095Z,0.50
2023-01-17T20:26:19.937Z,0.40
2023-01-17T20:28:48.931Z,0.30
2023-01-17T20:31:18.121Z,0.30
2023-01-17T20:33:47.019Z,0.20
2023-01-17T20:36:17.532Z,0.20
2023-01-17T20:38:45.521Z,0.20
2023-01-17T20:41:14.229Z,0.20
2023-01-17T20:43:42.247Z,0.10
2023-01-17T20:46:10.391Z,0.00
2023-01-17T20:48:39.160Z,0.00
2023-01-17T20:51:10.545Z,0.00
2023-01-17T20:53:40.907Z,0.00
2023-01-17T20:56:09.111Z,0.00
2023-01-17T20:58:38.503Z,-0.10
2023-01-17T21:01:07.038Z,-0.10
2023-01-17T21:03:35.483Z,-0.20
2023-01-17T21:06:04.795Z,-0.20
2023-01-17T21:08:33.471Z,-0.30
2023-01-17T21:11:02.837Z,-0.30
2023-01-17T21:13:31.684Z,-0.30
2023-01-17T21:15:59.836Z,-0.40
2023-01-17T21:18:28.410Z,-0.40
2023-01-17T21:20:56.434Z,-0.40
2023-01-17T21:23:29.266Z,-0.40
2023-01-17T21:25:58.019Z,-0.50
2023-01-17T21:28:28.349Z,-0.50
2023-01-17T21:30:56.690Z,-0.50
2023-01-17T21:33:25.410Z,-0.50
2023-01-17T21:35:53.552Z,-0.50
2023-01-17T21:38:21.612Z,-0.60
2023-01-17T21:40:49.634Z,-0.60
2023-01-17T21:43:17.621Z,-0.60
2023-01-17T21:45:47.007Z,-0.70
2023-01-17T21:48:15.000Z,-0.70
2023-01-17T21:50:43.017Z,-0.70
2023-01-17T21:53:11.028Z,-0.70
2023-01-17T21:55:56.825Z,-0.80
2023-01-17T21:58:42.201Z,-0.80
2023-01-17T22:01:17.972Z,-0.80
2023-01-17T22:03:48.153Z,-0.80
2023-01-17T22:06:16.224Z,-0.90
2023-01-17T22:08:44.297Z,-0.90
2023-01-17T22:11:13.372Z,-0.90
2023-01-17T22:13:41.952Z,-0.90
2023-01-17T22:16:14.162Z,-1.00
2023-01-17T22:18:42.968Z,-1.00
2023-01-17T22:21:12.814Z,-1.00
2023-01-17T22:23:40.944Z,-1.10
2023-01-17T22:26:09.937Z,-1.10
2023-01-17T22:28:37.999Z,-1.10
2023-01-17T22:31:12.915Z,-1.10
2023-01-17T22:33:41.671Z,-1.10
2023-01-17T22:36:13.729Z,-1.20
2023-01-17T22:38:41.834Z,-1.20
2023-01-17T22:41:11.116Z,-1.20
2023-01-17T22:43:39.790Z,-1.20
2023-01-17T22:46:08.265Z,-1.30
2023-01-17T22:48:37.953Z,-1.30
2023-01-17T22:51:06.621Z,-1.30
2023-01-17T22:53:34.618Z,-1.40
2023-01-17T22:56:03.426Z,-1.30
2023-01-17T22:58:31.491Z,-1.40
2023-01-17T23:01:05.492Z,-1.40
2023-01-17T23:03:33.693Z,-1.40
2023-01-17T23:06:16.069Z,-1.30
2023-01-17T23:08:44.882Z,-1.30
2023-01-17T23:11:42.628Z,-1.40
2023-01-17T23:14:13.237Z,-1.40
2023-01-17T23:16:59.570Z,-1.40
2023-01-17T23:19:28.407Z,-1.40
2023-01-17T23:22:16.806Z,-1.50
2023-01-17T23:24:45.513Z,-1.50
2023-01-17T23:27:31.877Z,-1.60
2023-01-17T23:29:59.902Z,-1.60
2023-01-17T23:32:28.234Z,-1.60
2023-01-17T23:34:56.253Z,-1.60
2023-01-17T23:37:51.021Z,-1.60
2023-01-17T23:40:19.807Z,-1.60
2023-01-17T23:43:05.279Z,-1.60
2023-01-17T23:45:35.584Z,-1.70
2023-01-17T23:48:05.700Z,-1.70
2023-01-17T23:50:34.169Z,-1.80
2023-01-17T23:53:07.054Z,-1.80
2023-01-17T23:55:36.315Z,-1.80
2023-01-17T23:58:04.365Z,-1.70
